sensor_id;sensor_type;location;lat;lon;timestamp;P1;durP1;ratioP1;P2;durP2;ratioP2
70132;SDS011;57495;49.922;7.966;2023-11-21T00:01:50;4.53;;;0.90;;
70132;SDS011;57495;49.922;7.966;2023-11-21T00:03:52;4.35;;;1.20;;
70132;SDS011;57495;49.922;7.966;2023-11-21T00:05:54;3.80;;;0.88;;
70132;SDS011;57495;49.922;7.966;2023-11-21T00:07:56;5.03;;;1.00;;
70132;SDS011;57495;49.922;7.966;2023-11-21T00:09:57;5.28;;;1.02;;
70132;SDS011;57495;49.922;7.966;2023-11-21T00:11:58;4.57;;;0.73;;
70132;SDS011;57495;49.922;7.966;2023-11-21T00:14:01;6.32;;;0.82;;
70132;SDS011;57495;49.922;7.966;2023-11-21T00:16:03;4.50;;;1.10;;
70132;SDS011;57495;49.922;7.966;2023-11-21T00:18:05;3.33;;;0.75;;
70132;SDS011;57495;49.922;7.966;2023-11-21T00:20:07;6.40;;;1.20;;
70132;SDS011;57495;49.922;7.966;2023-11-21T00:22:08;5.57;;;0.60;;
70132;SDS011;57495;49.922;7.966;2023-11-21T00:24:10;2.67;;;0.60;;
70132;SDS011;57495;49.922;7.966;2023-11-21T00:26:13;2.60;;;0.60;;
70132;SDS011;57495;49.922;7.966;2023-11-21T00:28:15;3.78;;;0.73;;
70132;SDS011;57495;49.922;7.966;2023-11-21T00:30:18;3.38;;;0.80;;
70132;SDS011;57495;49.922;7.966;2023-11-21T00:32:22;5.55;;;0.80;;
70132;SDS011;57495;49.922;7.966;2023-11-21T00:34:22;3.93;;;1.00;;
70132;SDS011;57495;49.922;7.966;2023-11-21T00:36:24;4.78;;;0.90;;
70132;SDS011;57495;49.922;7.966;2023-11-21T00:38:26;6.53;;;0.88;;
70132;SDS011;57495;49.922;7.966;2023-11-21T00:40:27;5.05;;;1.23;;
70132;SDS011;57495;49.922;7.966;2023-11-21T00:42:29;2.70;;;0.70;;
70132;SDS011;57495;49.922;7.966;2023-11-21T00:44:32;4.55;;;0.50;;
70132;SDS011;57495;49.922;7.966;2023-11-21T00:46:35;2.90;;;0.65;;
70132;SDS011;57495;49.922;7.966;2023-11-21T00:48:37;4.07;;;0.75;;
70132;SDS011;57495;49.922;7.966;2023-11-21T00:50:38;2.90;;;0.50;;
70132;SDS011;57495;49.922;7.966;2023-11-21T00:52:40;2.97;;;0.50;;
70132;SDS011;57495;49.922;7.966;2023-11-21T00:54:41;3.85;;;1.48;;
70132;SDS011;57495;49.922;7.966;2023-11-21T00:56:43;5.72;;;0.82;;
70132;SDS011;57495;49.922;7.966;2023-11-21T00:58:47;4.18;;;0.77;;
70132;SDS011;57495;49.922;7.966;2023-11-21T01:00:50;4.18;;;0.80;;
70132;SDS011;57495;49.922;7.966;2023-11-21T01:02:53;6.03;;;0.70;;
70132;SDS011;57495;49.922;7.966;2023-11-21T01:04:53;2.75;;;0.60;;
70132;SDS011;57495;49.922;7.966;2023-11-21T01:06:54;3.83;;;1.13;;
70132;SDS011;57495;49.922;7.966;2023-11-21T01:08:56;5.53;;;0.68;;
70132;SDS011;57495;49.922;7.966;2023-11-21T01:10:56;3.83;;;0.50;;
70132;SDS011;57495;49.922;7.966;2023-11-21T01:12:58;4.35;;;0.50;;
70132;SDS011;57495;49.922;7.966;2023-11-21T01:14:59;4.70;;;0.68;;
70132;SDS011;57495;49.922;7.966;2023-11-21T01:17:01;3.88;;;0.50;;
70132;SDS011;57495;49.922;7.966;2023-11-21T01:19:05;4.03;;;1.08;;
70132;SDS011;57495;49.922;7.966;2023-11-21T01:21:07;6.00;;;0.90;;
70132;SDS011;57495;49.922;7.966;2023-11-21T01:23:09;3.25;;;0.80;;
70132;SDS011;57495;49.922;7.966;2023-11-21T01:25:10;4.20;;;0.95;;
70132;SDS011;57495;49.922;7.966;2023-11-21T01:27:14;4.18;;;0.90;;
70132;SDS011;57495;49.922;7.966;2023-11-21T01:29:15;4.25;;;0.82;;
70132;SDS011;57495;49.922;7.966;2023-11-21T01:31:17;4.00;;;0.70;;
70132;SDS011;57495;49.922;7.966;2023-11-21T01:33:17;4.80;;;0.87;;
70132;SDS011;57495;49.922;7.966;2023-11-21T01:35:20;3.70;;;0.90;;
70132;SDS011;57495;49.922;7.966;2023-11-21T01:37:22;3.83;;;1.48;;
70132;SDS011;57495;49.922;7.966;2023-11-21T01:39:22;5.27;;;1.47;;
70132;SDS011;57495;49.922;7.966;2023-11-21T01:41:24;5.97;;;1.75;;
70132;SDS011;57495;49.922;7.966;2023-11-21T01:43:26;5.75;;;1.92;;
70132;SDS011;57495;49.922;7.966;2023-11-21T01:45:30;6.05;;;1.65;;
70132;SDS011;57495;49.922;7.966;2023-11-21T01:47:33;4.30;;;1.65;;
70132;SDS011;57495;49.922;7.966;2023-11-21T01:49:36;8.07;;;1.40;;
70132;SDS011;57495;49.922;7.966;2023-11-21T01:51:39;5.10;;;1.13;;
70132;SDS011;57495;49.922;7.966;2023-11-21T01:53:43;3.90;;;0.95;;
70132;SDS011;57495;49.922;7.966;2023-11-21T01:55:45;4.47;;;0.90;;
70132;SDS011;57495;49.922;7.966;2023-11-21T01:57:46;3.90;;;0.70;;
70132;SDS011;57495;49.922;7.966;2023-11-21T01:59:49;4.32;;;0.90;;
70132;SDS011;57495;49.922;7.966;2023-11-21T02:01:52;4.32;;;1.00;;
70132;SDS011;57495;49.922;7.966;2023-11-21T02:03:56;3.15;;;0.63;;
70132;SDS011;57495;49.922;7.966;2023-11-21T02:05:57;5.43;;;1.02;;
70132;SDS011;57495;49.922;7.966;2023-11-21T02:08:01;3.00;;;0.90;;
70132;SDS011;57495;49.922;7.966;2023-11-21T02:10:03;4.88;;;0.70;;
70132;SDS011;57495;49.922;7.966;2023-11-21T02:12:04;4.60;;;0.85;;
70132;SDS011;57495;49.922;7.966;2023-11-21T02:14:07;3.03;;;0.68;;
70132;SDS011;57495;49.922;7.966;2023-11-21T02:16:09;4.38;;;1.00;;
70132;SDS011;57495;49.922;7.966;2023-11-21T02:18:12;6.00;;;1.45;;
70132;SDS011;57495;49.922;7.966;2023-11-21T02:20:15;4.30;;;1.00;;
70132;SDS011;57495;49.922;7.966;2023-11-21T02:22:17;3.22;;;0.82;;
70132;SDS011;57495;49.922;7.966;2023-11-21T02:24:22;2.80;;;0.68;;
70132;SDS011;57495;49.922;7.966;2023-11-21T02:26:23;3.85;;;0.90;;
70132;SDS011;57495;49.922;7.966;2023-11-21T02:28:26;4.43;;;0.80;;
70132;SDS011;57495;49.922;7.966;2023-11-21T02:30:27;4.28;;;1.17;;
70132;SDS011;57495;49.922;7.966;2023-11-21T02:32:28;3.80;;;1.10;;
70132;SDS011;57495;49.922;7.966;2023-11-21T02:34:31;4.57;;;1.80;;
70132;SDS011;57495;49.922;7.966;2023-11-21T02:36:33;5.13;;;2.33;;
70132;SDS011;57495;49.922;7.966;2023-11-21T02:38:33;5.73;;;2.40;;
70132;SDS011;57495;49.922;7.966;2023-11-21T02:40:36;7.63;;;3.50;;
70132;SDS011;57495;49.922;7.966;2023-11-21T02:42:37;8.02;;;3.78;;
70132;SDS011;57495;49.922;7.966;2023-11-21T02:44:39;6.47;;;2.85;;
70132;SDS011;57495;49.922;7.966;2023-11-21T02:46:41;8.32;;;4.20;;
70132;SDS011;57495;49.922;7.966;2023-11-21T02:48:43;6.70;;;3.58;;
70132;SDS011;57495;49.922;7.966;2023-11-21T02:50:44;7.50;;;3.72;;
70132;SDS011;57495;49.922;7.966;2023-11-21T02:52:46;7.53;;;3.28;;
70132;SDS011;57495;49.922;7.966;2023-11-21T02:54:47;7.70;;;3.80;;
70132;SDS011;57495;49.922;7.966;2023-11-21T02:56:51;8.95;;;3.05;;
70132;SDS011;57495;49.922;7.966;2023-11-21T02:58:52;6.90;;;3.15;;
70132;SDS011;57495;49.922;7.966;2023-11-21T03:00:55;9.60;;;3.10;;
70132;SDS011;57495;49.922;7.966;2023-11-21T03:02:56;6.65;;;3.17;;
70132;SDS011;57495;49.922;7.966;2023-11-21T03:04:59;6.25;;;3.00;;
70132;SDS011;57495;49.922;7.966;2023-11-21T03:07:00;6.30;;;3.25;;
70132;SDS011;57495;49.922;7.966;2023-11-21T03:09:01;7.03;;;3.08;;
70132;SDS011;57495;49.922;7.966;2023-11-21T03:11:03;6.18;;;3.00;;
70132;SDS011;57495;49.922;7.966;2023-11-21T03:13:07;6.83;;;2.87;;
70132;SDS011;57495;49.922;7.966;2023-11-21T03:15:08;6.10;;;2.88;;
70132;SDS011;57495;49.922;7.966;2023-11-21T03:17:09;5.50;;;2.50;;
70132;SDS011;57495;49.922;7.966;2023-11-21T03:19:11;7.60;;;3.42;;
70132;SDS011;57495;49.922;7.966;2023-11-21T03:21:15;8.50;;;3.83;;
70132;SDS011;57495;49.922;7.966;2023-11-21T03:23:15;7.00;;;3.13;;
70132;SDS011;57495;49.922;7.966;2023-11-21T03:25:16;7.38;;;3.45;;
70132;SDS011;57495;49.922;7.966;2023-11-21T03:27:18;6.43;;;3.10;;
70132;SDS011;57495;49.922;7.966;2023-11-21T03:29:21;6.55;;;2.85;;
70132;SDS011;57495;49.922;7.966;2023-11-21T03:31:22;6.22;;;2.38;;
70132;SDS011;57495;49.922;7.966;2023-11-21T03:33:24;5.15;;;2.10;;
70132;SDS011;57495;49.922;7.966;2023-11-21T03:35:25;4.43;;;1.52;;
70132;SDS011;57495;49.922;7.966;2023-11-21T03:37:27;5.75;;;2.40;;
70132;SDS011;57495;49.922;7.966;2023-11-21T03:39:29;5.15;;;2.13;;
70132;SDS011;57495;49.922;7.966;2023-11-21T03:41:32;5.22;;;1.98;;
70132;SDS011;57495;49.922;7.966;2023-11-21T03:43:35;5.85;;;2.05;;
70132;SDS011;57495;49.922;7.966;2023-11-21T03:45:37;4.95;;;1.90;;
70132;SDS011;57495;49.922;7.966;2023-11-21T03:47:41;5.85;;;2.65;;
70132;SDS011;57495;49.922;7.966;2023-11-21T03:49:43;5.68;;;2.38;;
70132;SDS011;57495;49.922;7.966;2023-11-21T03:51:44;5.35;;;1.98;;
70132;SDS011;57495;49.922;7.966;2023-11-21T03:53:46;4.40;;;1.80;;
70132;SDS011;57495;49.922;7.966;2023-11-21T03:55:47;4.60;;;1.90;;
70132;SDS011;57495;49.922;7.966;2023-11-21T03:57:49;5.15;;;1.80;;
70132;SDS011;57495;49.922;7.966;2023-11-21T03:59:49;4.68;;;1.95;;
70132;SDS011;57495;49.922;7.966;2023-11-21T04:01:53;4.93;;;1.83;;
70132;SDS011;57495;49.922;7.966;2023-11-21T04:03:56;4.73;;;1.67;;
70132;SDS011;57495;49.922;7.966;2023-11-21T04:05:58;3.85;;;1.27;;
70132;SDS011;57495;49.922;7.966;2023-11-21T04:08:01;3.90;;;1.20;;
70132;SDS011;57495;49.922;7.966;2023-11-21T04:10:02;3.45;;;0.90;;
70132;SDS011;57495;49.922;7.966;2023-11-21T04:12:04;3.60;;;1.02;;
70132;SDS011;57495;49.922;7.966;2023-11-21T04:14:06;3.77;;;1.13;;
70132;SDS011;57495;49.922;7.966;2023-11-21T04:16:07;3.60;;;0.90;;
70132;SDS011;57495;49.922;7.966;2023-11-21T04:18:10;3.00;;;0.80;;
70132;SDS011;57495;49.922;7.966;2023-11-21T04:20:12;4.85;;;0.80;;
70132;SDS011;57495;49.922;7.966;2023-11-21T04:22:13;3.50;;;1.10;;
70132;SDS011;57495;49.922;7.966;2023-11-21T04:24:15;4.13;;;1.20;;
70132;SDS011;57495;49.922;7.966;2023-11-21T04:26:16;4.55;;;1.40;;
70132;SDS011;57495;49.922;7.966;2023-11-21T04:28:18;5.20;;;1.40;;
70132;SDS011;57495;49.922;7.966;2023-11-21T04:30:19;4.65;;;1.42;;
70132;SDS011;57495;49.922;7.966;2023-11-21T04:32:21;4.18;;;1.38;;
70132;SDS011;57495;49.922;7.966;2023-11-21T04:34:24;3.85;;;1.00;;
70132;SDS011;57495;49.922;7.966;2023-11-21T04:36:25;3.72;;;0.93;;
70132;SDS011;57495;49.922;7.966;2023-11-21T04:38:27;3.47;;;1.13;;
70132;SDS011;57495;49.922;7.966;2023-11-21T04:40:28;4.28;;;1.25;;
70132;SDS011;57495;49.922;7.966;2023-11-21T04:42:29;6.20;;;1.33;;
70132;SDS011;57495;49.922;7.966;2023-11-21T04:44:30;4.20;;;1.57;;
70132;SDS011;57495;49.922;7.966;2023-11-21T04:46:32;4.07;;;1.08;;
70132;SDS011;57495;49.922;7.966;2023-11-21T04:48:34;3.50;;;0.85;;
70132;SDS011;57495;49.922;7.966;2023-11-21T04:50:36;3.25;;;0.70;;
70132;SDS011;57495;49.922;7.966;2023-11-21T04:52:38;4.70;;;1.13;;
70132;SDS011;57495;49.922;7.966;2023-11-21T04:54:39;2.37;;;0.80;;
70132;SDS011;57495;49.922;7.966;2023-11-21T04:56:40;3.17;;;0.57;;
70132;SDS011;57495;49.922;7.966;2023-11-21T04:58:42;2.75;;;0.40;;
70132;SDS011;57495;49.922;7.966;2023-11-21T05:00:44;2.40;;;0.60;;
70132;SDS011;57495;49.922;7.966;2023-11-21T05:02:44;2.45;;;0.65;;
70132;SDS011;57495;49.922;7.966;2023-11-21T05:04:46;2.92;;;0.60;;
70132;SDS011;57495;49.922;7.966;2023-11-21T05:06:49;3.23;;;0.40;;
70132;SDS011;57495;49.922;7.966;2023-11-21T05:08:51;2.72;;;0.35;;
70132;SDS011;57495;49.922;7.966;2023-11-21T05:10:52;4.85;;;0.90;;
70132;SDS011;57495;49.922;7.966;2023-11-21T05:12:54;3.28;;;0.98;;
70132;SDS011;57495;49.922;7.966;2023-11-21T05:14:56;3.40;;;0.88;;
70132;SDS011;57495;49.922;7.966;2023-11-21T05:16:58;4.40;;;1.23;;
70132;SDS011;57495;49.922;7.966;2023-11-21T05:18:59;4.18;;;1.30;;
70132;SDS011;57495;49.922;7.966;2023-11-21T05:21:01;3.50;;;0.95;;
70132;SDS011;57495;49.922;7.966;2023-11-21T05:23:04;3.35;;;1.10;;
70132;SDS011;57495;49.922;7.966;2023-11-21T05:25:06;4.90;;;1.20;;
70132;SDS011;57495;49.922;7.966;2023-11-21T05:27:08;4.87;;;1.17;;
70132;SDS011;57495;49.922;7.966;2023-11-21T05:29:10;3.78;;;1.00;;
70132;SDS011;57495;49.922;7.966;2023-11-21T05:31:12;4.82;;;1.20;;
70132;SDS011;57495;49.922;7.966;2023-11-21T05:33:12;4.07;;;1.10;;
70132;SDS011;57495;49.922;7.966;2023-11-21T05:35:14;3.35;;;0.90;;
70132;SDS011;57495;49.922;7.966;2023-11-21T05:37:16;3.33;;;0.93;;
70132;SDS011;57495;49.922;7.966;2023-11-21T05:39:19;4.63;;;0.93;;
70132;SDS011;57495;49.922;7.966;2023-11-21T05:41:22;3.45;;;0.70;;
70132;SDS011;57495;49.922;7.966;2023-11-21T05:43:23;2.90;;;0.80;;
70132;SDS011;57495;49.922;7.966;2023-11-21T05:45:25;2.95;;;0.73;;
70132;SDS011;57495;49.922;7.966;2023-11-21T05:47:25;4.68;;;1.00;;
70132;SDS011;57495;49.922;7.966;2023-11-21T05:49:27;3.50;;;0.98;;
70132;SDS011;57495;49.922;7.966;2023-11-21T05:51:29;3.92;;;1.25;;
70132;SDS011;57495;49.922;7.966;2023-11-21T05:53:30;5.53;;;1.40;;
70132;SDS011;57495;49.922;7.966;2023-11-21T05:55:33;4.65;;;1.15;;
70132;SDS011;57495;49.922;7.966;2023-11-21T05:57:34;3.72;;;0.80;;
70132;SDS011;57495;49.922;7.966;2023-11-21T05:59:37;4.40;;;1.50;;
70132;SDS011;57495;49.922;7.966;2023-11-21T06:01:38;4.35;;;1.38;;
70132;SDS011;57495;49.922;7.966;2023-11-21T06:03:40;4.15;;;1.50;;
70132;SDS011;57495;49.922;7.966;2023-11-21T06:05:41;4.78;;;1.30;;
70132;SDS011;57495;49.922;7.966;2023-11-21T06:07:43;3.88;;;1.35;;
70132;SDS011;57495;49.922;7.966;2023-11-21T06:09:45;5.30;;;2.08;;
70132;SDS011;57495;49.922;7.966;2023-11-21T06:11:47;5.55;;;1.83;;
70132;SDS011;57495;49.922;7.966;2023-11-21T06:13:49;6.28;;;1.80;;
70132;SDS011;57495;49.922;7.966;2023-11-21T06:15:53;3.78;;;1.48;;
70132;SDS011;57495;49.922;7.966;2023-11-21T06:17:55;4.15;;;1.58;;
70132;SDS011;57495;49.922;7.966;2023-11-21T06:19:57;6.05;;;1.50;;
70132;SDS011;57495;49.922;7.966;2023-11-21T06:21:57;4.45;;;1.60;;
70132;SDS011;57495;49.922;7.966;2023-11-21T06:24:01;5.03;;;1.57;;
70132;SDS011;57495;49.922;7.966;2023-11-21T06:26:03;4.75;;;1.50;;
70132;SDS011;57495;49.922;7.966;2023-11-21T06:28:07;3.97;;;1.17;;
70132;SDS011;57495;49.922;7.966;2023-11-21T06:30:08;3.90;;;1.38;;
70132;SDS011;57495;49.922;7.966;2023-11-21T06:32:11;3.63;;;1.50;;
70132;SDS011;57495;49.922;7.966;2023-11-21T06:34:13;4.93;;;1.63;;
70132;SDS011;57495;49.922;7.966;2023-11-21T06:36:14;5.65;;;1.30;;
70132;SDS011;57495;49.922;7.966;2023-11-21T06:38:16;5.70;;;2.38;;
70132;SDS011;57495;49.922;7.966;2023-11-21T06:40:18;6.82;;;2.70;;
70132;SDS011;57495;49.922;7.966;2023-11-21T06:42:18;5.03;;;2.40;;
70132;SDS011;57495;49.922;7.966;2023-11-21T06:44:22;5.47;;;2.57;;
70132;SDS011;57495;49.922;7.966;2023-11-21T06:46:23;4.97;;;2.00;;
70132;SDS011;57495;49.922;7.966;2023-11-21T06:48:24;5.20;;;2.40;;
70132;SDS011;57495;49.922;7.966;2023-11-21T06:50:26;7.20;;;3.42;;
70132;SDS011;57495;49.922;7.966;2023-11-21T06:52:27;7.00;;;3.75;;
70132;SDS011;57495;49.922;7.966;2023-11-21T06:54:28;37.60;;;25.33;;
70132;SDS011;57495;49.922;7.966;2023-11-21T06:56:29;21.60;;;15.40;;
70132;SDS011;57495;49.922;7.966;2023-11-21T06:58:32;15.07;;;10.23;;
70132;SDS011;57495;49.922;7.966;2023-11-21T07:00:34;15.82;;;10.48;;
70132;SDS011;57495;49.922;7.966;2023-11-21T07:02:35;12.32;;;7.82;;
70132;SDS011;57495;49.922;7.966;2023-11-21T07:04:36;11.10;;;7.40;;
70132;SDS011;57495;49.922;7.966;2023-11-21T07:06:38;11.10;;;6.15;;
70132;SDS011;57495;49.922;7.966;2023-11-21T07:08:39;7.20;;;4.90;;
70132;SDS011;57495;49.922;7.966;2023-11-21T07:10:41;7.45;;;4.13;;
70132;SDS011;57495;49.922;7.966;2023-11-21T07:12:43;5.68;;;2.70;;
70132;SDS011;57495;49.922;7.966;2023-11-21T07:14:44;5.25;;;2.72;;
70132;SDS011;57495;49.922;7.966;2023-11-21T07:16:47;6.13;;;2.65;;
70132;SDS011;57495;49.922;7.966;2023-11-21T07:18:49;5.72;;;2.90;;
70132;SDS011;57495;49.922;7.966;2023-11-21T07:20:50;7.93;;;2.95;;
70132;SDS011;57495;49.922;7.966;2023-11-21T07:22:52;7.68;;;2.85;;
70132;SDS011;57495;49.922;7.966;2023-11-21T07:24:53;6.57;;;3.70;;
70132;SDS011;57495;49.922;7.966;2023-11-21T07:26:56;6.68;;;3.60;;
70132;SDS011;57495;49.922;7.966;2023-11-21T07:28:58;6.10;;;3.30;;
70132;SDS011;57495;49.922;7.966;2023-11-21T07:31:00;6.45;;;3.35;;
70132;SDS011;57495;49.922;7.966;2023-11-21T07:33:03;7.55;;;3.70;;
70132;SDS011;57495;49.922;7.966;2023-11-21T07:35:05;6.18;;;3.53;;
70132;SDS011;57495;49.922;7.966;2023-11-21T07:37:08;6.55;;;3.83;;
70132;SDS011;57495;49.922;7.966;2023-11-21T07:39:10;5.70;;;3.20;;
70132;SDS011;57495;49.922;7.966;2023-11-21T07:41:11;7.20;;;2.58;;
70132;SDS011;57495;49.922;7.966;2023-11-21T07:43:15;7.95;;;2.63;;
70132;SDS011;57495;49.922;7.966;2023-11-21T07:45:19;5.32;;;2.42;;
70132;SDS011;57495;49.922;7.966;2023-11-21T07:47:22;4.35;;;2.20;;
70132;SDS011;57495;49.922;7.966;2023-11-21T07:49:28;4.43;;;2.33;;
70132;SDS011;57495;49.922;7.966;2023-11-21T07:51:29;10.52;;;2.60;;
70132;SDS011;57495;49.922;7.966;2023-11-21T07:53:30;4.63;;;1.88;;
70132;SDS011;57495;49.922;7.966;2023-11-21T07:55:31;4.60;;;1.90;;
70132;SDS011;57495;49.922;7.966;2023-11-21T07:57:33;5.75;;;2.00;;
70132;SDS011;57495;49.922;7.966;2023-11-21T07:59:34;6.57;;;2.80;;
70132;SDS011;57495;49.922;7.966;2023-11-21T08:01:36;4.77;;;2.30;;
70132;SDS011;57495;49.922;7.966;2023-11-21T08:03:37;5.60;;;2.60;;
70132;SDS011;57495;49.922;7.966;2023-11-21T08:05:40;7.35;;;3.30;;
70132;SDS011;57495;49.922;7.966;2023-11-21T08:07:41;5.22;;;2.28;;
70132;SDS011;57495;49.922;7.966;2023-11-21T08:09:43;6.50;;;2.60;;
70132;SDS011;57495;49.922;7.966;2023-11-21T08:11:44;4.53;;;1.70;;
70132;SDS011;57495;49.922;7.966;2023-11-21T08:13:46;5.10;;;2.17;;
70132;SDS011;57495;49.922;7.966;2023-11-21T08:15:47;6.33;;;2.60;;
70132;SDS011;57495;49.922;7.966;2023-11-21T08:17:48;5.13;;;2.50;;
70132;SDS011;57495;49.922;7.966;2023-11-21T08:19:50;5.95;;;1.90;;
70132;SDS011;57495;49.922;7.966;2023-11-21T08:21:53;3.40;;;1.17;;
70132;SDS011;57495;49.922;7.966;2023-11-21T08:23:55;5.80;;;1.38;;
70132;SDS011;57495;49.922;7.966;2023-11-21T08:25:56;5.75;;;1.52;;
70132;SDS011;57495;49.922;7.966;2023-11-21T08:27:58;4.38;;;1.65;;
70132;SDS011;57495;49.922;7.966;2023-11-21T08:29:59;6.15;;;1.80;;
70132;SDS011;57495;49.922;7.966;2023-11-21T08:32:01;5.80;;;2.00;;
70132;SDS011;57495;49.922;7.966;2023-11-21T08:34:02;5.00;;;1.55;;
70132;SDS011;57495;49.922;7.966;2023-11-21T08:36:06;4.75;;;1.17;;
70132;SDS011;57495;49.922;7.966;2023-11-21T08:38:09;4.00;;;1.45;;
70132;SDS011;57495;49.922;7.966;2023-11-21T08:40:12;6.63;;;2.72;;
70132;SDS011;57495;49.922;7.966;2023-11-21T08:42:16;7.10;;;2.90;;
70132;SDS011;57495;49.922;7.966;2023-11-21T08:44:18;4.82;;;1.85;;
70132;SDS011;57495;49.922;7.966;2023-11-21T08:46:19;4.35;;;1.50;;
70132;SDS011;57495;49.922;7.966;2023-11-21T08:48:21;7.07;;;1.95;;
70132;SDS011;57495;49.922;7.966;2023-11-21T08:50:22;4.85;;;1.65;;
70132;SDS011;57495;49.922;7.966;2023-11-21T08:52:24;5.03;;;2.03;;
70132;SDS011;57495;49.922;7.966;2023-11-21T08:54:27;5.35;;;1.92;;
70132;SDS011;57495;49.922;7.966;2023-11-21T08:56:27;4.40;;;1.63;;
70132;SDS011;57495;49.922;7.966;2023-11-21T08:58:29;3.95;;;1.38;;
70132;SDS011;57495;49.922;7.966;2023-11-21T09:00:31;5.05;;;1.60;;
70132;SDS011;57495;49.922;7.966;2023-11-21T09:02:33;6.78;;;2.20;;
70132;SDS011;57495;49.922;7.966;2023-11-21T09:04:34;6.05;;;1.90;;
70132;SDS011;57495;49.922;7.966;2023-11-21T09:06:36;5.18;;;1.67;;
70132;SDS011;57495;49.922;7.966;2023-11-21T09:08:37;5.80;;;2.05;;
70132;SDS011;57495;49.922;7.966;2023-11-21T09:10:40;5.70;;;2.35;;
70132;SDS011;57495;49.922;7.966;2023-11-21T09:12:43;6.15;;;1.88;;
70132;SDS011;57495;49.922;7.966;2023-11-21T09:14:44;6.20;;;2.28;;
70132;SDS011;57495;49.922;7.966;2023-11-21T09:16:47;8.75;;;2.80;;
70132;SDS011;57495;49.922;7.966;2023-11-21T09:18:49;7.28;;;3.33;;
70132;SDS011;57495;49.922;7.966;2023-11-21T09:20:50;8.73;;;3.08;;
70132;SDS011;57495;49.922;7.966;2023-11-21T09:22:52;7.18;;;2.70;;
70132;SDS011;57495;49.922;7.966;2023-11-21T09:24:55;8.98;;;3.67;;
70132;SDS011;57495;49.922;7.966;2023-11-21T09:26:59;7.03;;;2.75;;
70132;SDS011;57495;49.922;7.966;2023-11-21T09:29:01;8.18;;;2.85;;
70132;SDS011;57495;49.922;7.966;2023-11-21T09:31:03;6.00;;;2.47;;
70132;SDS011;57495;49.922;7.966;2023-11-21T09:33:09;6.43;;;2.53;;
70132;SDS011;57495;49.922;7.966;2023-11-21T09:35:10;7.40;;;2.25;;
70132;SDS011;57495;49.922;7.966;2023-11-21T09:37:14;6.28;;;2.55;;
70132;SDS011;57495;49.922;7.966;2023-11-21T09:39:15;7.07;;;2.50;;
70132;SDS011;57495;49.922;7.966;2023-11-21T09:41:20;9.57;;;3.10;;
70132;SDS011;57495;49.922;7.966;2023-11-21T09:43:26;10.02;;;2.80;;
70132;SDS011;57495;49.922;7.966;2023-11-21T09:45:32;8.63;;;3.20;;
70132;SDS011;57495;49.922;7.966;2023-11-21T09:47:37;8.63;;;2.60;;
70132;SDS011;57495;49.922;7.966;2023-11-21T09:49:39;6.97;;;2.28;;
70132;SDS011;57495;49.922;7.966;2023-11-21T09:51:42;6.43;;;2.70;;
70132;SDS011;57495;49.922;7.966;2023-11-21T09:53:44;8.77;;;3.30;;
70132;SDS011;57495;49.922;7.966;2023-11-21T09:55:51;4.45;;;1.90;;
70132;SDS011;57495;49.922;7.966;2023-11-21T09:57:55;4.90;;;1.85;;
70132;SDS011;57495;49.922;7.966;2023-11-21T09:59:58;5.22;;;1.40;;
70132;SDS011;57495;49.922;7.966;2023-11-21T10:02:04;5.32;;;1.58;;
70132;SDS011;57495;49.922;7.966;2023-11-21T10:04:10;4.95;;;1.60;;
70132;SDS011;57495;49.922;7.966;2023-11-21T10:06:12;4.82;;;1.23;;
70132;SDS011;57495;49.922;7.966;2023-11-21T10:08:15;5.15;;;1.67;;
70132;SDS011;57495;49.922;7.966;2023-11-21T10:10:17;12.77;;;3.50;;
70132;SDS011;57495;49.922;7.966;2023-11-21T10:12:19;13.48;;;4.97;;
70132;SDS011;57495;49.922;7.966;2023-11-21T10:14:21;14.13;;;4.65;;
70132;SDS011;57495;49.922;7.966;2023-11-21T10:16:30;22.25;;;7.30;;
70132;SDS011;57495;49.922;7.966;2023-11-21T10:18:32;19.00;;;5.72;;
70132;SDS011;57495;49.922;7.966;2023-11-21T10:20:35;12.52;;;3.35;;
70132;SDS011;57495;49.922;7.966;2023-11-21T10:22:38;9.05;;;2.50;;
70132;SDS011;57495;49.922;7.966;2023-11-21T10:24:41;23.05;;;6.30;;
70132;SDS011;57495;49.922;7.966;2023-11-21T10:26:43;23.70;;;6.88;;
70132;SDS011;57495;49.922;7.966;2023-11-21T10:28:55;14.85;;;4.20;;
70132;SDS011;57495;49.922;7.966;2023-11-21T10:30:56;18.15;;;6.72;;
70132;SDS011;57495;49.922;7.966;2023-11-21T10:33:00;16.60;;;5.68;;
70132;SDS011;57495;49.922;7.966;2023-11-21T10:35:02;12.82;;;4.47;;
70132;SDS011;57495;49.922;7.966;2023-11-21T10:37:10;6.35;;;1.52;;
70132;SDS011;57495;49.922;7.966;2023-11-21T10:39:13;5.85;;;1.95;;
70132;SDS011;57495;49.922;7.966;2023-11-21T10:41:19;8.68;;;4.38;;
70132;SDS011;57495;49.922;7.966;2023-11-21T10:43:21;6.65;;;2.33;;
70132;SDS011;57495;49.922;7.966;2023-11-21T10:45:26;6.03;;;2.25;;
70132;SDS011;57495;49.922;7.966;2023-11-21T10:47:29;4.38;;;1.45;;
70132;SDS011;57495;49.922;7.966;2023-11-21T10:49:33;5.47;;;1.90;;
70132;SDS011;57495;49.922;7.966;2023-11-21T10:51:35;6.22;;;1.67;;
70132;SDS011;57495;49.922;7.966;2023-11-21T10:53:38;4.55;;;1.30;;
70132;SDS011;57495;49.922;7.966;2023-11-21T10:55:41;4.93;;;1.20;;
70132;SDS011;57495;49.922;7.966;2023-11-21T10:57:44;5.03;;;1.10;;
70132;SDS011;57495;49.922;7.966;2023-11-21T10:59:49;6.25;;;1.80;;
70132;SDS011;57495;49.922;7.966;2023-11-21T11:01:52;5.18;;;1.42;;
70132;SDS011;57495;49.922;7.966;2023-11-21T11:03:54;48.20;;;20.23;;
70132;SDS011;57495;49.922;7.966;2023-11-21T11:05:57;13.47;;;6.67;;
70132;SDS011;57495;49.922;7.966;2023-11-21T11:07:59;11.85;;;6.68;;
70132;SDS011;57495;49.922;7.966;2023-11-21T11:10:04;5.25;;;2.25;;
70132;SDS011;57495;49.922;7.966;2023-11-21T11:12:08;7.65;;;4.40;;
70132;SDS011;57495;49.922;7.966;2023-11-21T11:14:10;6.68;;;2.30;;
70132;SDS011;57495;49.922;7.966;2023-11-21T11:16:12;5.80;;;1.50;;
70132;SDS011;57495;49.922;7.966;2023-11-21T11:18:17;4.75;;;1.33;;
70132;SDS011;57495;49.922;7.966;2023-11-21T11:20:21;4.88;;;1.10;;
70132;SDS011;57495;49.922;7.966;2023-11-21T11:22:29;6.55;;;1.13;;
70132;SDS011;57495;49.922;7.966;2023-11-21T11:24:44;6.55;;;3.13;;
70132;SDS011;57495;49.922;7.966;2023-11-21T11:26:56;11.93;;;6.73;;
70132;SDS011;57495;49.922;7.966;2023-11-21T11:29:04;9.20;;;3.40;;
70132;SDS011;57495;49.922;7.966;2023-11-21T11:31:13;5.70;;;2.45;;
70132;SDS011;57495;49.922;7.966;2023-11-21T11:33:25;5.97;;;1.92;;
70132;SDS011;57495;49.922;7.966;2023-11-21T11:35:34;5.28;;;1.70;;
70132;SDS011;57495;49.922;7.966;2023-11-21T11:37:44;8.10;;;3.10;;
70132;SDS011;57495;49.922;7.966;2023-11-21T11:39:47;7.68;;;2.58;;
70132;SDS011;57495;49.922;7.966;2023-11-21T11:41:50;6.72;;;3.08;;
70132;SDS011;57495;49.922;7.966;2023-11-21T11:43:52;4.85;;;1.50;;
70132;SDS011;57495;49.922;7.966;2023-11-21T11:45:55;6.50;;;2.38;;
70132;SDS011;57495;49.922;7.966;2023-11-21T11:47:57;8.70;;;1.80;;
70132;SDS011;57495;49.922;7.966;2023-11-21T11:50:02;4.70;;;1.55;;
70132;SDS011;57495;49.922;7.966;2023-11-21T11:54:36;7.47;;;2.33;;
70132;SDS011;57495;49.922;7.966;2023-11-21T11:56:38;9.45;;;4.75;;
70132;SDS011;57495;49.922;7.966;2023-11-21T11:58:40;5.73;;;2.37;;
70132;SDS011;57495;49.922;7.966;2023-11-21T12:00:41;4.88;;;2.10;;
70132;SDS011;57495;49.922;7.966;2023-11-21T12:02:45;6.60;;;2.85;;
70132;SDS011;57495;49.922;7.966;2023-11-21T12:04:48;5.70;;;2.15;;
70132;SDS011;57495;49.922;7.966;2023-11-21T12:06:50;6.68;;;2.25;;
70132;SDS011;57495;49.922;7.966;2023-11-21T12:08:52;5.33;;;2.70;;
70132;SDS011;57495;49.922;7.966;2023-11-21T12:10:55;6.80;;;2.30;;
70132;SDS011;57495;49.922;7.966;2023-11-21T12:12:59;7.10;;;2.33;;
70132;SDS011;57495;49.922;7.966;2023-11-21T12:15:02;4.45;;;1.92;;
70132;SDS011;57495;49.922;7.966;2023-11-21T12:17:05;6.57;;;2.55;;
70132;SDS011;57495;49.922;7.966;2023-11-21T12:19:06;5.33;;;2.30;;